sensor_id;sensor_type;location;lat;lon;timestamp;temperature;humidity
8172;DHT22;4127;47.908;10.850;2022-09-12T06:22:40;8.50;99.90
8172;DHT22;4127;47.908;10.850;2022-09-12T06:29:30;8.70;99.90
8172;DHT22;4127;47.908;10.850;2022-09-12T06:31:58;9.10;99.90
8172;DHT22;4127;47.908;10.850;2022-09-12T06:34:49;8.10;99.90
8172;DHT22;4127;47.908;10.850;2022-09-12T06:37:25;9.40;99.90
8172;DHT22;4127;47.908;10.850;2022-09-12T06:43:48;9.70;99.90
8172;DHT22;4127;47.908;10.850;2022-09-12T06:46:16;10.20;99.90
8172;DHT22;4127;47.908;10.850;2022-09-12T06:48:44;10.00;99.90
8172;DHT22;4127;47.908;10.850;2022-09-12T10:14:59;19.00;99.90
8172;DHT22;4127;47.908;10.850;2022-09-12T10:24:36;19.20;99.90
8172;DHT22;4127;47.908;10.850;2022-09-12T10:29:42;19.30;99.90
8172;DHT22;4127;47.908;10.850;2022-09-12T10:32:11;19.20;99.90
8172;DHT22;4127;47.908;10.850;2022-09-12T10:34:45;19.40;99.90
8172;DHT22;4127;47.908;10.850;2022-09-12T10:37:22;19.60;99.90
8172;DHT22;4127;47.908;10.850;2022-09-12T10:39:53;19.50;99.90
8172;DHT22;4127;47.908;10.850;2022-09-12T10:45:59;19.50;99.90
8172;DHT22;4127;47.908;10.850;2022-09-12T10:48:37;19.60;97.30
8172;DHT22;4127;47.908;10.850;2022-09-12T10:51:04;19.60;98.60
8172;DHT22;4127;47.908;10.850;2022-09-12T10:53:39;19.70;97.30
8172;DHT22;4127;47.908;10.850;2022-09-12T10:56:09;20.00;99.00
8172;DHT22;4127;47.908;10.850;2022-09-12T11:06:56;21.00;97.00
8172;DHT22;4127;47.908;10.850;2022-09-12T11:15:22;21.00;96.10
8172;DHT22;4127;47.908;10.850;2022-09-12T11:24:09;21.60;93.90
8172;DHT22;4127;47.908;10.850;2022-09-12T11:27:02;21.60;93.10
8172;DHT22;4127;47.908;10.850;2022-09-12T11:34:58;22.00;90.60
8172;DHT22;4127;47.908;10.850;2022-09-12T11:42:58;21.90;91.80
8172;DHT22;4127;47.908;10.850;2022-09-12T11:45:35;22.00;93.90
8172;DHT22;4127;47.908;10.850;2022-09-12T11:48:10;22.10;92.20
8172;DHT22;4127;47.908;10.850;2022-09-12T11:50:37;22.00;92.10
8172;DHT22;4127;47.908;10.850;2022-09-12T11:53:17;22.00;92.20
8172;DHT22;4127;47.908;10.850;2022-09-12T11:58:21;21.60;92.60
8172;DHT22;4127;47.908;10.850;2022-09-12T12:00:52;21.60;90.60
8172;DHT22;4127;47.908;10.850;2022-09-12T12:03:39;21.70;90.60
8172;DHT22;4127;47.908;10.850;2022-09-12T12:06:13;21.80;89.90
8172;DHT22;4127;47.908;10.850;2022-09-12T12:08:42;22.00;88.90
8172;DHT22;4127;47.908;10.850;2022-09-12T12:11:12;22.10;88.20
8172;DHT22;4127;47.908;10.850;2022-09-12T12:14:00;22.40;87.20
8172;DHT22;4127;47.908;10.850;2022-09-12T12:16:37;22.60;89.80
8172;DHT22;4127;47.908;10.850;2022-09-12T12:21:52;22.70;89.30
8172;DHT22;4127;47.908;10.850;2022-09-12T12:24:24;22.90;86.60
8172;DHT22;4127;47.908;10.850;2022-09-12T12:27:04;23.00;87.70
8172;DHT22;4127;47.908;10.850;2022-09-12T12:29:47;23.20;88.50
8172;DHT22;4127;47.908;10.850;2022-09-12T12:34:45;23.20;84.10
8172;DHT22;4127;47.908;10.850;2022-09-12T12:55:37;21.70;84.60
8172;DHT22;4127;47.908;10.850;2022-09-12T12:58:39;21.90;88.90
8172;DHT22;4127;47.908;10.850;2022-09-12T13:01:20;21.80;85.70
8172;DHT22;4127;47.908;10.850;2022-09-12T13:03:58;21.80;90.00
8172;DHT22;4127;47.908;10.850;2022-09-12T13:06:35;22.00;90.10
8172;DHT22;4127;47.908;10.850;2022-09-12T13:09:05;22.40;90.10
8172;DHT22;4127;47.908;10.850;2022-09-12T13:11:37;22.50;89.10
8172;DHT22;4127;47.908;10.850;2022-09-12T13:14:08;22.00;86.60
8172;DHT22;4127;47.908;10.850;2022-09-12T13:16:59;21.90;88.10
8172;DHT22;4127;47.908;10.850;2022-09-12T13:19:29;22.20;90.40
8172;DHT22;4127;47.908;10.850;2022-09-12T13:22:00;22.30;86.00
8172;DHT22;4127;47.908;10.850;2022-09-12T13:24:27;22.00;88.90
8172;DHT22;4127;47.908;10.850;2022-09-12T13:26:54;22.00;87.90
8172;DHT22;4127;47.908;10.850;2022-09-12T13:29:25;22.40;87.60
8172;DHT22;4127;47.908;10.850;2022-09-12T13:31:57;22.50;89.90
8172;DHT22;4127;47.908;10.850;2022-09-12T13:34:33;22.10;89.00
8172;DHT22;4127;47.908;10.850;2022-09-12T13:43:11;22.00;87.10
8172;DHT22;4127;47.908;10.850;2022-09-12T13:45:42;22.10;87.40
8172;DHT22;4127;47.908;10.850;2022-09-12T13:48:14;22.50;88.60
8172;DHT22;4127;47.908;10.850;2022-09-12T13:53:18;22.50;86.60
8172;DHT22;4127;47.908;10.850;2022-09-12T13:55:50;22.20;83.70
8172;DHT22;4127;47.908;10.850;2022-09-12T13:58:32;22.20;87.30
8172;DHT22;4127;47.908;10.850;2022-09-12T14:03:31;22.20;88.30
8172;DHT22;4127;47.908;10.850;2022-09-12T14:06:22;22.00;87.80
8172;DHT22;4127;47.908;10.850;2022-09-12T14:08:50;21.80;87.00
8172;DHT22;4127;47.908;10.850;2022-09-12T14:11:26;22.10;87.10
8172;DHT22;4127;47.908;10.850;2022-09-12T14:13:53;22.30;89.30
8172;DHT22;4127;47.908;10.850;2022-09-12T14:16:22;22.40;90.20
8172;DHT22;4127;47.908;10.850;2022-09-12T14:18:49;22.60;87.40
8172;DHT22;4127;47.908;10.850;2022-09-12T14:21:33;22.50;86.00
8172;DHT22;4127;47.908;10.850;2022-09-12T14:24:03;22.40;86.50
8172;DHT22;4127;47.908;10.850;2022-09-12T14:26:38;22.80;86.50
8172;DHT22;4127;47.908;10.850;2022-09-12T14:29:06;22.60;85.70
8172;DHT22;4127;47.908;10.850;2022-09-12T14:31:35;22.80;83.80
8172;DHT22;4127;47.908;10.850;2022-09-12T14:34:17;22.90;85.40
8172;DHT22;4127;47.908;10.850;2022-09-12T14:39:21;23.20;86.40
8172;DHT22;4127;47.908;10.850;2022-09-12T14:41:50;22.80;87.50
8172;DHT22;4127;47.908;10.850;2022-09-12T14:44:21;22.10;87.40
8172;DHT22;4127;47.908;10.850;2022-09-12T14:46:49;21.80;88.40
8172;DHT22;4127;47.908;10.850;2022-09-12T14:49:31;21.80;86.70
8172;DHT22;4127;47.908;10.850;2022-09-12T14:52:03;21.80;89.00
8172;DHT22;4127;47.908;10.850;2022-09-12T14:56:59;21.40;88.40
8172;DHT22;4127;47.908;10.850;2022-09-12T15:10:35;22.80;86.10
8172;DHT22;4127;47.908;10.850;2022-09-12T15:15:37;22.90;86.90
8172;DHT22;4127;47.908;10.850;2022-09-12T15:18:04;22.80;82.50
8172;DHT22;4127;47.908;10.850;2022-09-12T15:20:35;22.70;85.00
8172;DHT22;4127;47.908;10.850;2022-09-12T15:23:02;22.50;83.70
8172;DHT22;4127;47.908;10.850;2022-09-12T15:25:29;21.70;85.50
8172;DHT22;4127;47.908;10.850;2022-09-12T15:27:56;21.50;86.70
8172;DHT22;4127;47.908;10.850;2022-09-12T15:30:23;21.70;87.50
8172;DHT22;4127;47.908;10.850;2022-09-12T15:32:50;21.80;87.50
8172;DHT22;4127;47.908;10.850;2022-09-12T15:35:20;21.90;89.60
8172;DHT22;4127;47.908;10.850;2022-09-12T15:37:48;21.80;86.60
8172;DHT22;4127;47.908;10.850;2022-09-12T15:40:15;21.70;87.20
8172;DHT22;4127;47.908;10.850;2022-09-12T15:42:42;21.60;87.30
8172;DHT22;4127;47.908;10.850;2022-09-12T15:45:19;21.70;87.80
8172;DHT22;4127;47.908;10.850;2022-09-12T15:47:47;21.70;87.00
8172;DHT22;4127;47.908;10.850;2022-09-12T15:50:14;21.90;90.40
8172;DHT22;4127;47.908;10.850;2022-09-12T15:52:41;22.00;87.10
8172;DHT22;4127;47.908;10.850;2022-09-12T15:55:19;21.80;85.20
8172;DHT22;4127;47.908;10.850;2022-09-12T15:57:46;21.80;87.00
8172;DHT22;4127;47.908;10.850;2022-09-12T16:00:14;21.50;88.80
8172;DHT22;4127;47.908;10.850;2022-09-12T16:02:44;21.60;90.70
8172;DHT22;4127;47.908;10.850;2022-09-12T16:05:17;21.80;91.50
8172;DHT22;4127;47.908;10.850;2022-09-12T16:07:45;22.00;90.50
8172;DHT22;4127;47.908;10.850;2022-09-12T16:10:17;22.10;91.40
8172;DHT22;4127;47.908;10.850;2022-09-12T16:12:48;22.10;90.50
8172;DHT22;4127;47.908;10.850;2022-09-12T16:15:21;22.20;90.90
8172;DHT22;4127;47.908;10.850;2022-09-12T16:17:48;22.20;90.10
8172;DHT22;4127;47.908;10.850;2022-09-12T16:20:16;22.20;91.40
8172;DHT22;4127;47.908;10.850;2022-09-12T16:22:44;22.30;91.20
8172;DHT22;4127;47.908;10.850;2022-09-12T16:25:11;22.30;92.20
8172;DHT22;4127;47.908;10.850;2022-09-12T16:27:37;22.30;92.80
8172;DHT22;4127;47.908;10.850;2022-09-12T16:30:05;22.30;91.30
8172;DHT22;4127;47.908;10.850;2022-09-12T16:32:32;22.20;92.50
8172;DHT22;4127;47.908;10.850;2022-09-12T16:34:59;22.10;92.40
8172;DHT22;4127;47.908;10.850;2022-09-12T16:37:26;22.00;92.70
8172;DHT22;4127;47.908;10.850;2022-09-12T16:39:53;21.80;92.50
8172;DHT22;4127;47.908;10.850;2022-09-12T16:42:20;21.60;92.40
8172;DHT22;4127;47.908;10.850;2022-09-12T16:44:47;21.50;92.50
8172;DHT22;4127;47.908;10.850;2022-09-12T16:47:14;21.40;92.60
8172;DHT22;4127;47.908;10.850;2022-09-12T16:49:40;21.30;92.40
8172;DHT22;4127;47.908;10.850;2022-09-12T16:52:07;21.10;92.70
8172;DHT22;4127;47.908;10.850;2022-09-12T16:54:34;21.00;93.50
8172;DHT22;4127;47.908;10.850;2022-09-12T16:57:01;21.00;93.80
8172;DHT22;4127;47.908;10.850;2022-09-12T16:59:31;20.90;94.40
8172;DHT22;4127;47.908;10.850;2022-09-12T17:01:57;20.90;94.30
8172;DHT22;4127;47.908;10.850;2022-09-12T17:04:25;20.80;94.10
8172;DHT22;4127;47.908;10.850;2022-09-12T17:06:52;20.70;93.90
8172;DHT22;4127;47.908;10.850;2022-09-12T17:09:19;20.60;93.70
8172;DHT22;4127;47.908;10.850;2022-09-12T17:11:47;20.50;94.10
8172;DHT22;4127;47.908;10.850;2022-09-12T17:14:15;20.40;93.80
8172;DHT22;4127;47.908;10.850;2022-09-12T17:16:44;20.20;94.90
8172;DHT22;4127;47.908;10.850;2022-09-12T17:19:19;20.00;96.20
8172;DHT22;4127;47.908;10.850;2022-09-12T17:21:46;19.70;96.80
8172;DHT22;4127;47.908;10.850;2022-09-12T17:24:16;19.30;98.40
8172;DHT22;4127;47.908;10.850;2022-09-12T17:26:46;18.90;99.40
8172;DHT22;4127;47.908;10.850;2022-09-12T17:29:13;18.60;99.90
8172;DHT22;4127;47.908;10.850;2022-09-12T17:35:28;17.70;99.90
8172;DHT22;4127;47.908;10.850;2022-09-12T17:37:55;17.40;99.90
8172;DHT22;4127;47.908;10.850;2022-09-12T18:45:02;14.00;99.90
8172;DHT22;4127;47.908;10.850;2022-09-12T18:47:29;14.00;99.90
8172;DHT22;4127;47.908;10.850;2022-09-12T18:49:56;13.90;99.90
8172;DHT22;4127;47.908;10.850;2022-09-12T18:52:22;13.90;99.90
8172;DHT22;4127;47.908;10.850;2022-09-12T18:54:49;13.70;99.90
8172;DHT22;4127;47.908;10.850;2022-09-12T18:57:16;13.70;99.90
8172;DHT22;4127;47.908;10.850;2022-09-12T18:59:43;13.60;99.90
8172;DHT22;4127;47.908;10.850;2022-09-12T19:02:14;13.50;99.90
8172;DHT22;4127;47.908;10.850;2022-09-12T19:04:41;13.50;99.90
8172;DHT22;4127;47.908;10.850;2022-09-12T19:07:08;13.40;99.90
8172;DHT22;4127;47.908;10.850;2022-09-12T19:09:36;13.30;99.90
8172;DHT22;4127;47.908;10.850;2022-09-12T19:12:03;13.20;99.90
8172;DHT22;4127;47.908;10.850;2022-09-12T19:14:29;13.20;99.90
8172;DHT22;4127;47.908;10.850;2022-09-12T19:16:56;13.20;99.90
8172;DHT22;4127;47.908;10.850;2022-09-12T19:19:23;13.20;99.90
8172;DHT22;4127;47.908;10.850;2022-09-12T19:21:49;13.10;99.90
8172;DHT22;4127;47.908;10.850;2022-09-12T19:24:17;13.00;99.90
8172;DHT22;4127;47.908;10.850;2022-09-12T19:26:44;13.00;99.90
8172;DHT22;4127;47.908;10.850;2022-09-12T19:29:11;13.00;99.90
8172;DHT22;4127;47.908;10.850;2022-09-12T19:31:39;12.90;99.90
8172;DHT22;4127;47.908;10.850;2022-09-12T19:34:06;12.70;99.90
8172;DHT22;4127;47.908;10.850;2022-09-12T19:36:33;12.70;99.90
8172;DHT22;4127;47.908;10.850;2022-09-12T19:39:17;12.70;99.90
8172;DHT22;4127;47.908;10.850;2022-09-12T19:41:45;12.60;99.90
8172;DHT22;4127;47.908;10.850;2022-09-12T19:44:12;12.50;99.90
8172;DHT22;4127;47.908;10.850;2022-09-12T19:46:39;12.50;99.90
8172;DHT22;4127;47.908;10.850;2022-09-12T19:49:06;12.60;99.90
8172;DHT22;4127;47.908;10.850;2022-09-12T19:51:33;12.60;99.90
8172;DHT22;4127;47.908;10.850;2022-09-12T19:53:59;12.40;99.90
8172;DHT22;4127;47.908;10.850;2022-09-12T19:56:26;12.40;99.90
8172;DHT22;4127;47.908;10.850;2022-09-12T19:58:53;12.40;99.90
8172;DHT22;4127;47.908;10.850;2022-09-12T20:01:24;12.30;99.90
8172;DHT22;4127;47.908;10.850;2022-09-12T20:03:57;12.20;99.90
8172;DHT22;4127;47.908;10.850;2022-09-12T20:06:25;12.20;99.90
8172;DHT22;4127;47.908;10.850;2022-09-12T20:08:52;12.10;99.90
8172;DHT22;4127;47.908;10.850;2022-09-12T20:11:20;12.40;99.90
8172;DHT22;4127;47.908;10.850;2022-09-12T20:13:48;12.00;99.90
8172;DHT22;4127;47.908;10.850;2022-09-12T20:16:20;12.00;99.90
8172;DHT22;4127;47.908;10.850;2022-09-12T20:18:56;12.00;99.90
8172;DHT22;4127;47.908;10.850;2022-09-12T20:21:25;11.90;99.90
8172;DHT22;4127;47.908;10.850;2022-09-12T20:24:15;12.00;99.90
8172;DHT22;4127;47.908;10.850;2022-09-12T20:26:42;11.80;99.90
8172;DHT22;4127;47.908;10.850;2022-09-12T20:29:09;11.80;99.90
8172;DHT22;4127;47.908;10.850;2022-09-12T20:31:37;11.70;99.90
8172;DHT22;4127;47.908;10.850;2022-09-12T20:34:05;11.70;99.90
8172;DHT22;4127;47.908;10.850;2022-09-12T20:36:33;11.60;99.90
8172;DHT22;4127;47.908;10.850;2022-09-12T20:39:00;11.60;99.90
8172;DHT22;4127;47.908;10.850;2022-09-12T20:41:31;11.60;99.90
8172;DHT22;4127;47.908;10.850;2022-09-12T20:43:58;11.50;99.90
8172;DHT22;4127;47.908;10.850;2022-09-12T20:46:26;11.30;99.90
8172;DHT22;4127;47.908;10.850;2022-09-12T20:48:54;11.50;99.90
8172;DHT22;4127;47.908;10.850;2022-09-12T20:51:21;11.50;99.90
8172;DHT22;4127;47.908;10.850;2022-09-12T20:53:54;11.50;99.90
8172;DHT22;4127;47.908;10.850;2022-09-12T20:56:21;11.40;99.90
8172;DHT22;4127;47.908;10.850;2022-09-12T20:58:49;11.40;99.90
8172;DHT22;4127;47.908;10.850;2022-09-12T21:01:18;11.30;99.90
8172;DHT22;4127;47.908;10.850;2022-09-12T21:03:46;11.30;99.90
8172;DHT22;4127;47.908;10.850;2022-09-12T21:06:14;11.30;99.90
8172;DHT22;4127;47.908;10.850;2022-09-12T21:08:45;11.20;99.90
8172;DHT22;4127;47.908;10.850;2022-09-12T21:11:13;11.20;99.90
8172;DHT22;4127;47.908;10.850;2022-09-12T21:13:40;11.20;99.90
8172;DHT22;4127;47.908;10.850;2022-09-12T21:16:11;11.10;99.90
8172;DHT22;4127;47.908;10.850;2022-09-12T21:18:39;11.10;99.90
8172;DHT22;4127;47.908;10.850;2022-09-12T21:21:07;11.00;99.90
8172;DHT22;4127;47.908;10.850;2022-09-12T21:23:34;11.00;99.90
8172;DHT22;4127;47.908;10.850;2022-09-12T21:26:05;11.00;99.90
8172;DHT22;4127;47.908;10.850;2022-09-12T21:28:32;11.10;99.90
8172;DHT22;4127;47.908;10.850;2022-09-12T21:30:59;11.00;99.90
8172;DHT22;4127;47.908;10.850;2022-09-12T21:33:26;11.00;99.90
8172;DHT22;4127;47.908;10.850;2022-09-12T21:35:54;11.00;99.90
8172;DHT22;4127;47.908;10.850;2022-09-12T21:38:21;11.00;99.90
8172;DHT22;4127;47.908;10.850;2022-09-12T21:40:48;11.00;99.90
8172;DHT22;4127;47.908;10.850;2022-09-12T21:43:17;11.00;99.90
8172;DHT22;4127;47.908;10.850;2022-09-12T21:45:46;11.00;99.90
8172;DHT22;4127;47.908;10.850;2022-09-12T21:48:14;10.90;99.90
8172;DHT22;4127;47.908;10.850;2022-09-12T21:50:40;10.90;99.90
8172;DHT22;4127;47.908;10.850;2022-09-12T21:53:07;10.90;99.90
8172;DHT22;4127;47.908;10.850;2022-09-12T21:55:36;10.90;99.90
8172;DHT22;4127;47.908;10.850;2022-09-12T21:58:03;10.90;99.90
8172;DHT22;4127;47.908;10.850;2022-09-12T22:00:30;10.90;99.90
8172;DHT22;4127;47.908;10.850;2022-09-12T22:02:57;10.90;99.90
8172;DHT22;4127;47.908;10.850;2022-09-12T22:05:24;10.90;99.90
8172;DHT22;4127;47.908;10.850;2022-09-12T22:07:52;10.90;99.90
8172;DHT22;4127;47.908;10.850;2022-09-12T22:10:19;11.00;99.90
8172;DHT22;4127;47.908;10.850;2022-09-12T22:12:46;11.00;99.90
8172;DHT22;4127;47.908;10.850;2022-09-12T22:15:13;10.90;99.90
8172;DHT22;4127;47.908;10.850;2022-09-12T22:18:00;10.80;99.90
8172;DHT22;4127;47.908;10.850;2022-09-12T22:20:26;11.00;99.90
8172;DHT22;4127;47.908;10.850;2022-09-12T22:22:53;10.70;99.90
8172;DHT22;4127;47.908;10.850;2022-09-12T22:25:38;10.70;99.90
8172;DHT22;4127;47.908;10.850;2022-09-12T22:28:05;10.70;99.90
8172;DHT22;4127;47.908;10.850;2022-09-12T22:30:32;10.60;99.90
8172;DHT22;4127;47.908;10.850;2022-09-12T22:32:59;10.60;99.90
8172;DHT22;4127;47.908;10.850;2022-09-12T22:35:25;10.60;99.90
8172;DHT22;4127;47.908;10.850;2022-09-12T22:37:52;10.40;99.90
8172;DHT22;4127;47.908;10.850;2022-09-12T22:40:19;10.30;99.90
8172;DHT22;4127;47.908;10.850;2022-09-12T22:42:46;10.40;99.90
8172;DHT22;4127;47.908;10.850;2022-09-12T22:45:13;10.60;99.90
8172;DHT22;4127;47.908;10.850;2022-09-12T22:47:39;10.50;99.90
8172;DHT22;4127;47.908;10.850;2022-09-12T22:50:07;10.30;99.90
8172;DHT22;4127;47.908;10.850;2022-09-12T22:52:33;10.30;99.90
8172;DHT22;4127;47.908;10.850;2022-09-12T22:55:00;10.50;99.90
8172;DHT22;4127;47.908;10.850;2022-09-12T22:57:27;10.30;99.90
8172;DHT22;4127;47.908;10.850;2022-09-12T22:59:54;10.30;99.90
8172;DHT22;4127;47.908;10.850;2022-09-12T23:02:20;10.30;99.90
8172;DHT22;4127;47.908;10.850;2022-09-12T23:04:47;10.30;99.90
8172;DHT22;4127;47.908;10.850;2022-09-12T23:07:14;10.30;99.90
8172;DHT22;4127;47.908;10.850;2022-09-12T23:09:41;10.30;99.90
8172;DHT22;4127;47.908;10.850;2022-09-12T23:12:08;10.30;99.90
8172;DHT22;4127;47.908;10.850;2022-09-12T23:14:35;10.30;99.90
8172;DHT22;4127;47.908;10.850;2022-09-12T23:17:02;10.30;99.90
8172;DHT22;4127;47.908;10.850;2022-09-12T23:19:29;10.20;99.90
8172;DHT22;4127;47.908;10.850;2022-09-12T23:21:56;10.20;99.90
8172;DHT22;4127;47.908;10.850;2022-09-12T23:24:23;10.20;99.90
8172;DHT22;4127;47.908;10.850;2022-09-12T23:27:00;10.20;99.90
8172;DHT22;4127;47.908;10.850;2022-09-12T23:29:30;10.20;99.90
8172;DHT22;4127;47.908;10.850;2022-09-12T23:32:01;10.20;99.90
8172;DHT22;4127;47.908;10.850;2022-09-12T23:34:28;10.20;99.90
8172;DHT22;4127;47.908;10.850;2022-09-12T23:36:55;10.10;99.90
8172;DHT22;4127;47.908;10.850;2022-09-12T23:39:22;10.10;99.90
8172;DHT22;4127;47.908;10.850;2022-09-12T23:41:49;10.10;99.90
8172;DHT22;4127;47.908;10.850;2022-09-12T23:44:18;10.10;99.90
8172;DHT22;4127;47.908;10.850;2022-09-12T23:46:45;10.00;99.90
8172;DHT22;4127;47.908;10.850;2022-09-12T23:49:12;10.30;99.90
8172;DHT22;4127;47.908;10.850;2022-09-12T23:51:39;10.00;99.90
8172;DHT22;4127;47.908;10.850;2022-09-12T23:54:05;10.30;99.90
8172;DHT22;4127;47.908;10.850;2022-09-12T23:56:33;10.10;99.90
8172;DHT22;4127;47.908;10.850;2022-09-12T23:59:14;9.80;99.90
